TRA5162 HECA-EHAM
Flight info
| Callsign | TRA5162 |
|---|---|
| Flight time | N/A |
| Altitude | 32000 |
| Route | CVO L617 NOZ L551 ANTAR UN133 PAMIC/N0461F340 UN133 PEREN UL863 EVIVI L863 OKANA DCT OKLOP DCT TONDO DCT TEKNO DCT BEGLA DCT DEXIT DCT MAPOX L604 BIGGE DCT AMSAN T281 NORKU |
| Aircraft | B738/M-SDE2E3FGHIRWXY/LB1 |
Departure
| Time | N/A |
|---|---|
| Airport | Cairo International Airport (HECA) |
Arrival
| Time | 2026-04-27 12:55 |
|---|---|
| Airport | Amsterdam Airport Schiphol (EHAM) |
| Time | Latitude | Longitude | Altitude | Speed | Heading |
|---|---|---|---|---|---|
| 2026-04-27 11:31 | 48.08563 | 16.23114 | 34228 ft | 417 kts | 296° |
| 2026-04-27 11:31 | 48.10824 | 16.15119 | 34227 ft | 417 kts | 296° |
| 2026-04-27 11:32 | 48.13079 | 16.07116 | 34222 ft | 417 kts | 296° |
| 2026-04-27 11:32 | 48.15319 | 15.99139 | 34220 ft | 417 kts | 296° |
| 2026-04-27 11:33 | 48.17565 | 15.91116 | 34219 ft | 417 kts | 296° |
| 2026-04-27 11:33 | 48.19809 | 15.83072 | 34218 ft | 417 kts | 296° |
| 2026-04-27 11:34 | 48.22040 | 15.75046 | 34252 ft | 417 kts | 296° |
| 2026-04-27 11:34 | 48.24256 | 15.67049 | 34227 ft | 417 kts | 296° |
| 2026-04-27 11:35 | 48.26476 | 15.59009 | 34199 ft | 416 kts | 295° |
| 2026-04-27 11:35 | 48.28684 | 15.50986 | 34210 ft | 415 kts | 295° |
| 2026-04-27 11:36 | 48.30886 | 15.42959 | 34236 ft | 415 kts | 295° |
| 2026-04-27 11:36 | 48.33083 | 15.34924 | 34223 ft | 415 kts | 295° |
| 2026-04-27 11:37 | 48.35273 | 15.26886 | 34212 ft | 415 kts | 295° |
| 2026-04-27 11:37 | 48.37445 | 15.18886 | 34222 ft | 415 kts | 295° |
| 2026-04-27 11:38 | 48.39623 | 15.10834 | 34221 ft | 415 kts | 295° |
| 2026-04-27 11:38 | 48.41787 | 15.02811 | 34222 ft | 416 kts | 295° |
| 2026-04-27 11:39 | 48.43958 | 14.94732 | 34215 ft | 416 kts | 294° |
| 2026-04-27 11:39 | 48.46131 | 14.86618 | 34218 ft | 417 kts | 294° |
| 2026-04-27 11:40 | 48.48298 | 14.78497 | 34211 ft | 417 kts | 294° |
| 2026-04-27 11:40 | 48.50462 | 14.70357 | 34230 ft | 418 kts | 294° |
| 2026-04-27 11:41 | 48.52613 | 14.62242 | 34220 ft | 419 kts | 294° |
| 2026-04-27 11:41 | 48.54775 | 14.54053 | 34220 ft | 420 kts | 294° |
| 2026-04-27 11:42 | 48.56938 | 14.45834 | 34218 ft | 421 kts | 294° |
| 2026-04-27 11:42 | 48.59084 | 14.37650 | 34211 ft | 421 kts | 293° |
| 2026-04-27 11:43 | 48.61238 | 14.29402 | 34219 ft | 422 kts | 293° |
| 2026-04-27 11:43 | 48.63394 | 14.21119 | 34214 ft | 423 kts | 293° |
| 2026-04-27 11:44 | 48.65544 | 14.12833 | 34232 ft | 423 kts | 293° |
| 2026-04-27 11:44 | 48.67686 | 14.04541 | 34216 ft | 423 kts | 293° |
| 2026-04-27 11:45 | 48.69465 | 13.97635 | 34205 ft | 422 kts | 293° |
| 2026-04-27 11:45 | 48.71938 | 13.87998 | 34207 ft | 422 kts | 293° |
| 2026-04-27 11:46 | 48.74063 | 13.79690 | 34204 ft | 422 kts | 293° |
| 2026-04-27 11:46 | 48.76299 | 13.71538 | 34197 ft | 420 kts | 300° |
| 2026-04-27 11:47 | 48.79664 | 13.64361 | 34205 ft | 418 kts | 309° |
| 2026-04-27 11:47 | 48.83344 | 13.57503 | 34209 ft | 418 kts | 309° |
| 2026-04-27 11:48 | 48.86983 | 13.50665 | 34202 ft | 418 kts | 309° |
| 2026-04-27 11:48 | 48.90626 | 13.43758 | 34202 ft | 419 kts | 309° |
| 2026-04-27 11:49 | 48.94263 | 13.36826 | 34209 ft | 419 kts | 309° |
| 2026-04-27 11:49 | 48.97883 | 13.29906 | 34227 ft | 419 kts | 309° |
| 2026-04-27 11:50 | 49.01526 | 13.22922 | 34204 ft | 420 kts | 308° |
| 2026-04-27 11:50 | 49.05160 | 13.15938 | 34204 ft | 420 kts | 308° |
| 2026-04-27 11:51 | 49.08758 | 13.09005 | 34205 ft | 419 kts | 308° |
| 2026-04-27 11:52 | 49.14186 | 12.98511 | 34209 ft | 419 kts | 308° |
| 2026-04-27 11:52 | 49.17802 | 12.91499 | 34211 ft | 419 kts | 308° |
| 2026-04-27 11:53 | 49.21406 | 12.84491 | 34209 ft | 419 kts | 308° |
| 2026-04-27 11:53 | 49.24993 | 12.77496 | 34210 ft | 419 kts | 308° |
| 2026-04-27 11:54 | 49.28591 | 12.70464 | 34220 ft | 419 kts | 308° |
| 2026-04-27 11:54 | 49.32181 | 12.63426 | 34216 ft | 418 kts | 308° |
| 2026-04-27 11:55 | 49.35740 | 12.56432 | 34208 ft | 418 kts | 308° |
| 2026-04-27 11:55 | 49.39312 | 12.49394 | 34211 ft | 417 kts | 308° |
| 2026-04-27 11:56 | 49.42869 | 12.42367 | 34216 ft | 416 kts | 308° |
| 2026-04-27 11:56 | 49.46418 | 12.35336 | 34209 ft | 416 kts | 308° |
| 2026-04-27 11:57 | 49.49937 | 12.28347 | 34207 ft | 415 kts | 308° |
| 2026-04-27 11:57 | 49.53473 | 12.21305 | 34207 ft | 416 kts | 307° |
| 2026-04-27 11:58 | 49.57011 | 12.14241 | 34217 ft | 415 kts | 307° |
| 2026-04-27 11:58 | 49.60542 | 12.07172 | 34206 ft | 416 kts | 307° |
| 2026-04-27 11:59 | 49.64048 | 12.00134 | 34202 ft | 415 kts | 307° |
| 2026-04-27 11:59 | 49.67568 | 11.93049 | 34202 ft | 415 kts | 307° |
| 2026-04-27 12:00 | 49.71062 | 11.85999 | 34199 ft | 415 kts | 307° |
| 2026-04-27 12:00 | 49.74567 | 11.78907 | 34197 ft | 415 kts | 307° |
| 2026-04-27 12:01 | 49.78064 | 11.71812 | 34208 ft | 414 kts | 306° |
| 2026-04-27 12:01 | 49.81562 | 11.64695 | 34208 ft | 415 kts | 306° |
| 2026-04-27 12:02 | 49.85042 | 11.57595 | 34220 ft | 415 kts | 306° |
| 2026-04-27 12:02 | 49.88536 | 11.50450 | 34214 ft | 415 kts | 306° |
| 2026-04-27 12:03 | 49.92028 | 11.43289 | 34213 ft | 415 kts | 306° |
| 2026-04-27 12:03 | 49.95481 | 11.36188 | 34217 ft | 414 kts | 306° |
| 2026-04-27 12:04 | 49.98950 | 11.29034 | 34220 ft | 414 kts | 306° |
| 2026-04-27 12:04 | 50.02427 | 11.21846 | 34217 ft | 414 kts | 306° |
| 2026-04-27 12:05 | 50.05870 | 11.14707 | 34215 ft | 414 kts | 306° |
| 2026-04-27 12:05 | 50.09326 | 11.07523 | 34220 ft | 414 kts | 306° |
| 2026-04-27 12:06 | 50.12781 | 11.00321 | 34236 ft | 414 kts | 305° |
| 2026-04-27 12:06 | 50.16226 | 10.93120 | 34226 ft | 414 kts | 305° |
| 2026-04-27 12:07 | 50.19643 | 10.85959 | 34230 ft | 413 kts | 305° |
| 2026-04-27 12:07 | 50.23075 | 10.78746 | 34222 ft | 413 kts | 304° |
| 2026-04-27 12:08 | 50.26492 | 10.71544 | 34236 ft | 413 kts | 304° |
| 2026-04-27 12:08 | 50.29907 | 10.64327 | 34232 ft | 413 kts | 304° |
| 2026-04-27 12:09 | 50.33423 | 10.57203 | 34231 ft | 414 kts | 308° |
| 2026-04-27 12:09 | 50.37216 | 10.50468 | 34240 ft | 414 kts | 309° |
| 2026-04-27 12:10 | 50.41075 | 10.43716 | 34247 ft | 415 kts | 309° |
| 2026-04-27 12:10 | 50.44902 | 10.36920 | 34238 ft | 416 kts | 308° |
| 2026-04-27 12:11 | 50.48718 | 10.30070 | 34234 ft | 416 kts | 308° |
| 2026-04-27 12:11 | 50.52495 | 10.23251 | 34232 ft | 416 kts | 308° |
| 2026-04-27 12:12 | 50.56298 | 10.16362 | 34232 ft | 416 kts | 308° |
| 2026-04-27 12:12 | 50.60097 | 10.09465 | 34236 ft | 416 kts | 308° |
| 2026-04-27 12:13 | 50.63865 | 10.02604 | 34239 ft | 416 kts | 308° |
| 2026-04-27 12:13 | 50.67661 | 9.95675 | 34242 ft | 416 kts | 308° |
| 2026-04-27 12:14 | 50.71424 | 9.88789 | 34238 ft | 416 kts | 308° |
| 2026-04-27 12:14 | 50.75207 | 9.81845 | 34236 ft | 416 kts | 307° |
| 2026-04-27 12:15 | 50.78370 | 9.76025 | 34249 ft | 416 kts | 307° |
| 2026-04-27 12:15 | 50.82117 | 9.69115 | 34249 ft | 416 kts | 307° |
| 2026-04-27 12:16 | 50.85892 | 9.62134 | 34241 ft | 417 kts | 307° |
| 2026-04-27 12:16 | 50.89666 | 9.55135 | 34238 ft | 417 kts | 307° |
| 2026-04-27 12:17 | 50.93417 | 9.48160 | 34249 ft | 417 kts | 307° |
| 2026-04-27 12:17 | 50.97185 | 9.41135 | 34259 ft | 418 kts | 307° |
| 2026-04-27 12:18 | 51.00953 | 9.34090 | 34259 ft | 418 kts | 307° |
| 2026-04-27 12:18 | 51.04696 | 9.27073 | 34266 ft | 418 kts | 307° |
| 2026-04-27 12:19 | 51.08454 | 9.20009 | 34266 ft | 418 kts | 307° |
| 2026-04-27 12:19 | 51.12211 | 9.12926 | 34265 ft | 417 kts | 307° |
| 2026-04-27 12:20 | 51.15928 | 9.05899 | 34262 ft | 417 kts | 307° |
| 2026-04-27 12:20 | 51.19656 | 8.98834 | 34253 ft | 416 kts | 307° |
| 2026-04-27 12:21 | 51.23390 | 8.91736 | 34246 ft | 415 kts | 307° |
| 2026-04-27 12:21 | 51.27043 | 8.84779 | 34255 ft | 405 kts | 306° |
| 2026-04-27 12:22 | 51.30618 | 8.77947 | 34241 ft | 400 kts | 306° |
| 2026-04-27 12:22 | 51.34176 | 8.71129 | 34253 ft | 396 kts | 306° |
| 2026-04-27 12:23 | 51.37666 | 8.64422 | 34255 ft | 392 kts | 306° |
| 2026-04-27 12:23 | 51.41180 | 8.57647 | 34268 ft | 399 kts | 306° |
| 2026-04-27 12:24 | 51.44746 | 8.50751 | 34269 ft | 409 kts | 306° |
| 2026-04-27 12:24 | 51.48418 | 8.43634 | 34257 ft | 418 kts | 306° |
| 2026-04-27 12:25 | 51.52151 | 8.36388 | 34270 ft | 421 kts | 306° |
| 2026-04-27 12:25 | 51.55887 | 8.29116 | 34259 ft | 421 kts | 306° |
| 2026-04-27 12:26 | 51.59588 | 8.21890 | 34256 ft | 420 kts | 306° |
| 2026-04-27 12:26 | 51.63300 | 8.14619 | 34261 ft | 420 kts | 306° |
| 2026-04-27 12:27 | 51.67005 | 8.07340 | 34263 ft | 419 kts | 306° |
| 2026-04-27 12:27 | 51.70690 | 8.00081 | 34260 ft | 418 kts | 305° |
| 2026-04-27 12:28 | 51.74364 | 7.92821 | 34262 ft | 418 kts | 305° |
| 2026-04-27 12:28 | 51.78016 | 7.85585 | 34262 ft | 417 kts | 305° |
| 2026-04-27 12:29 | 51.81690 | 7.78284 | 34271 ft | 417 kts | 305° |
| 2026-04-27 12:29 | 51.85328 | 7.71034 | 34267 ft | 417 kts | 305° |
| 2026-04-27 12:30 | 51.88874 | 7.63613 | 34259 ft | 414 kts | 297° |
| 2026-04-27 12:30 | 51.91488 | 7.55345 | 34271 ft | 411 kts | 293° |
| 2026-04-27 12:31 | 51.94022 | 7.47064 | 33980 ft | 417 kts | 294° |
| 2026-04-27 12:31 | 51.95321 | 7.42845 | 33399 ft | 417 kts | 294° |
| 2026-04-27 12:31 | 51.96619 | 7.38648 | 32755 ft | 415 kts | 294° |
| 2026-04-27 12:31 | 51.97919 | 7.34456 | 32067 ft | 416 kts | 294° |
| 2026-04-27 12:32 | 51.99221 | 7.30259 | 31370 ft | 416 kts | 294° |
| 2026-04-27 12:32 | 52.00524 | 7.26056 | 30755 ft | 415 kts | 294° |
| 2026-04-27 12:32 | 52.01803 | 7.21932 | 30368 ft | 406 kts | 294° |
| 2026-04-27 12:32 | 52.03080 | 7.17800 | 29569 ft | 408 kts | 294° |
| 2026-04-27 12:33 | 52.04339 | 7.13719 | 28938 ft | 406 kts | 294° |
| 2026-04-27 12:33 | 52.05593 | 7.09647 | 28398 ft | 402 kts | 294° |
| 2026-04-27 12:33 | 52.06833 | 7.05617 | 27884 ft | 397 kts | 294° |
| 2026-04-27 12:33 | 52.08062 | 7.01613 | 27357 ft | 394 kts | 294° |
| 2026-04-27 12:34 | 52.09280 | 6.97636 | 26826 ft | 391 kts | 294° |
| 2026-04-27 12:34 | 52.10487 | 6.93692 | 26312 ft | 388 kts | 294° |
| 2026-04-27 12:34 | 52.11683 | 6.89774 | 25812 ft | 385 kts | 294° |
| 2026-04-27 12:34 | 52.12872 | 6.85873 | 25315 ft | 384 kts | 294° |
| 2026-04-27 12:35 | 52.14055 | 6.81984 | 24833 ft | 392 kts | 294° |
| 2026-04-27 12:35 | 52.15277 | 6.77955 | 24296 ft | 399 kts | 294° |
| 2026-04-27 12:35 | 52.16505 | 6.73906 | 23743 ft | 396 kts | 294° |
| 2026-04-27 12:35 | 52.17722 | 6.69891 | 23134 ft | 393 kts | 294° |
| 2026-04-27 12:36 | 52.18925 | 6.65917 | 22586 ft | 389 kts | 294° |
| 2026-04-27 12:36 | 52.20111 | 6.61992 | 22073 ft | 384 kts | 294° |
| 2026-04-27 12:36 | 52.21289 | 6.58085 | 21560 ft | 381 kts | 294° |
| 2026-04-27 12:36 | 52.22437 | 6.54271 | 21057 ft | 378 kts | 294° |
| 2026-04-27 12:37 | 52.23588 | 6.50441 | 20563 ft | 374 kts | 294° |
| 2026-04-27 12:37 | 52.24728 | 6.46639 | 20066 ft | 371 kts | 294° |
| 2026-04-27 12:37 | 52.25860 | 6.42860 | 19578 ft | 369 kts | 294° |
| 2026-04-27 12:37 | 52.26986 | 6.39093 | 19096 ft | 367 kts | 294° |
| 2026-04-27 12:38 | 52.28103 | 6.35352 | 18617 ft | 365 kts | 294° |
| 2026-04-27 12:38 | 52.29072 | 6.31550 | 18262 ft | 358 kts | 285° |
| 2026-04-27 12:38 | 52.29549 | 6.27604 | 17980 ft | 360 kts | 275° |
| 2026-04-27 12:38 | 52.29723 | 6.23535 | 17530 ft | 357 kts | 273° |
| 2026-04-27 12:39 | 52.29860 | 6.19492 | 17043 ft | 354 kts | 272° |
| 2026-04-27 12:39 | 52.29991 | 6.15483 | 16571 ft | 352 kts | 272° |
| 2026-04-27 12:39 | 52.30124 | 6.11509 | 16106 ft | 349 kts | 273° |
| 2026-04-27 12:39 | 52.30259 | 6.07563 | 15640 ft | 347 kts | 273° |
| 2026-04-27 12:40 | 52.30397 | 6.03637 | 15183 ft | 345 kts | 273° |
| 2026-04-27 12:40 | 52.30507 | 5.99732 | 14725 ft | 343 kts | 268° |
| 2026-04-27 12:40 | 52.30335 | 5.95861 | 14290 ft | 340 kts | 264° |
| 2026-04-27 12:40 | 52.30073 | 5.92026 | 13818 ft | 339 kts | 263° |
| 2026-04-27 12:41 | 52.29805 | 5.88244 | 13273 ft | 339 kts | 263° |
| 2026-04-27 12:41 | 52.29520 | 5.84332 | 12593 ft | 344 kts | 263° |
| 2026-04-27 12:41 | 52.29233 | 5.80512 | 12087 ft | 343 kts | 263° |
| 2026-04-27 12:41 | 52.28935 | 5.76637 | 11628 ft | 342 kts | 263° |
| 2026-04-27 12:42 | 52.28631 | 5.72793 | 11157 ft | 340 kts | 263° |
| 2026-04-27 12:42 | 52.28324 | 5.68990 | 11032 ft | 329 kts | 263° |
| 2026-04-27 12:42 | 52.28021 | 5.65339 | 10868 ft | 320 kts | 263° |
| 2026-04-27 12:42 | 52.27724 | 5.61829 | 10755 ft | 310 kts | 263° |
| 2026-04-27 12:43 | 52.27426 | 5.58388 | 10623 ft | 301 kts | 263° |
| 2026-04-27 12:43 | 52.27132 | 5.55046 | 10501 ft | 293 kts | 263° |
| 2026-04-27 12:43 | 52.26839 | 5.51797 | 10375 ft | 285 kts | 262° |
| 2026-04-27 12:43 | 52.26553 | 5.48627 | 10265 ft | 277 kts | 262° |
| 2026-04-27 12:44 | 52.26272 | 5.45523 | 10013 ft | 275 kts | 263° |
| 2026-04-27 12:44 | 52.25991 | 5.42479 | 9719 ft | 274 kts | 263° |
| 2026-04-27 12:44 | 52.25713 | 5.39413 | 9435 ft | 272 kts | 263° |
| 2026-04-27 12:44 | 52.25428 | 5.36321 | 8943 ft | 279 kts | 263° |
| 2026-04-27 12:45 | 52.25144 | 5.33254 | 8641 ft | 278 kts | 262° |
| 2026-04-27 12:45 | 52.24853 | 5.30144 | 8331 ft | 277 kts | 262° |
| 2026-04-27 12:45 | 52.24563 | 5.27032 | 8045 ft | 277 kts | 262° |
| 2026-04-27 12:45 | 52.24275 | 5.23955 | 7760 ft | 276 kts | 262° |
| 2026-04-27 12:46 | 52.23980 | 5.20860 | 7470 ft | 275 kts | 262° |
| 2026-04-27 12:46 | 52.23682 | 5.17776 | 7204 ft | 274 kts | 263° |
| 2026-04-27 12:46 | 52.23374 | 5.14702 | 6919 ft | 274 kts | 263° |
| 2026-04-27 12:46 | 52.23058 | 5.11635 | 6638 ft | 273 kts | 263° |
| 2026-04-27 12:47 | 52.22749 | 5.08582 | 6348 ft | 272 kts | 262° |
| 2026-04-27 12:47 | 52.22445 | 5.05537 | 6066 ft | 271 kts | 262° |
| 2026-04-27 12:47 | 52.22155 | 5.02509 | 5796 ft | 270 kts | 263° |
| 2026-04-27 12:47 | 52.21864 | 4.99529 | 5534 ft | 268 kts | 262° |
| 2026-04-27 12:48 | 52.21571 | 4.96533 | 5270 ft | 266 kts | 262° |
| 2026-04-27 12:48 | 52.21278 | 4.93538 | 5010 ft | 265 kts | 263° |
| 2026-04-27 12:48 | 52.20986 | 4.90575 | 4738 ft | 264 kts | 263° |
| 2026-04-27 12:48 | 52.20697 | 4.87666 | 4507 ft | 263 kts | 262° |
| 2026-04-27 12:49 | 52.20403 | 4.84728 | 4239 ft | 262 kts | 262° |
| 2026-04-27 12:49 | 52.20122 | 4.81857 | 4186 ft | 252 kts | 262° |
| 2026-04-27 12:49 | 52.19854 | 4.79058 | 4065 ft | 246 kts | 262° |
| 2026-04-27 12:49 | 52.19594 | 4.76354 | 3993 ft | 238 kts | 263° |
| 2026-04-27 12:50 | 52.19330 | 4.73693 | 3770 ft | 238 kts | 262° |
| 2026-04-27 12:50 | 52.19066 | 4.71027 | 3510 ft | 238 kts | 263° |
| 2026-04-27 12:50 | 52.18798 | 4.68358 | 3252 ft | 238 kts | 262° |
| 2026-04-27 12:50 | 52.18535 | 4.65670 | 2974 ft | 241 kts | 262° |
| 2026-04-27 12:51 | 52.18284 | 4.63004 | 2733 ft | 240 kts | 262° |
| 2026-04-27 12:51 | 52.18176 | 4.60294 | 2445 ft | 239 kts | 281° |
| 2026-04-27 12:51 | 52.18912 | 4.57968 | 2173 ft | 231 kts | 321° |
| 2026-04-27 12:51 | 52.20307 | 4.57070 | 2064 ft | 208 kts | 5° |
| 2026-04-27 12:52 | 52.21579 | 4.57781 | 2073 ft | 186 kts | 33° |
| 2026-04-27 12:52 | 52.22600 | 4.58979 | 2040 ft | 181 kts | 38° |
| 2026-04-27 12:52 | 52.23545 | 4.60401 | 1893 ft | 190 kts | 51° |
| 2026-04-27 12:52 | 52.24349 | 4.62100 | 1651 ft | 187 kts | 47° |
| 2026-04-27 12:53 | 52.25713 | 4.65326 | 1209 ft | 157 kts | 59° |
| 2026-04-27 12:53 | 52.26266 | 4.66809 | 990 ft | 150 kts | 56° |
| 2026-04-27 12:53 | 52.26814 | 4.68247 | 780 ft | 149 kts | 57° |
| 2026-04-27 12:54 | 52.27364 | 4.69702 | 630 ft | 152 kts | 57° |
| 2026-04-27 12:54 | 52.27914 | 4.71130 | 410 ft | 151 kts | 56° |
| 2026-04-27 12:54 | 52.28475 | 4.72579 | 200 ft | 149 kts | 57° |
| 2026-04-27 12:54 | 52.29015 | 4.73997 | 13 ft | 146 kts | 57° |
| 2026-04-27 12:55 | 52.29496 | 4.75245 | -3 ft | 102 kts | 59° |
| 2026-04-27 12:55 | 52.29766 | 4.75942 | -4 ft | 51 kts | 58° |
| 2026-04-27 12:55 | 52.29947 | 4.76408 | -4 ft | 46 kts | 56° |
| 2026-04-27 12:55 | 52.30178 | 4.76667 | -2 ft | 20 kts | 28° |
| 2026-04-27 12:56 | 52.30263 | 4.76743 | -2 ft | 11 kts | 29° |
| 2026-04-27 12:56 | 52.30316 | 4.76834 | -2 ft | 13 kts | 56° |
| 2026-04-27 12:56 | 52.30374 | 4.76980 | -2 ft | 17 kts | 57° |
| 2026-04-27 12:56 | 52.30434 | 4.77137 | -2 ft | 16 kts | 58° |
| 2026-04-27 12:57 | 52.30490 | 4.77286 | -2 ft | 15 kts | 58° |
| 2026-04-27 12:57 | 52.30545 | 4.77431 | -2 ft | 15 kts | 57° |
| 2026-04-27 12:57 | 52.30610 | 4.77555 | -2 ft | 14 kts | 36° |
| 2026-04-27 12:57 | 52.30703 | 4.77591 | -2 ft | 14 kts | 3° |
| 2026-04-27 12:58 | 52.30808 | 4.77601 | -2 ft | 15 kts | 3° |
| 2026-04-27 12:58 | 52.30907 | 4.77611 | -2 ft | 9 kts | 3° |
| 2026-04-27 12:58 | 52.30924 | 4.77613 | -2 ft | 2 kts | 3° |
| 2026-04-27 12:58 | 52.30927 | 4.77613 | -2 ft | 0 kts | 3° |
| 2026-04-27 12:59 | 52.30928 | 4.77613 | -2 ft | 1 kts | 3° |
| 2026-04-27 12:59 | 52.30939 | 4.77614 | -2 ft | 4 kts | 2° |
| 2026-04-27 12:59 | 52.30984 | 4.77610 | -2 ft | 9 kts | 345° |
| 2026-04-27 12:59 | 52.31044 | 4.77504 | -2 ft | 17 kts | 301° |
| 2026-04-27 13:00 | 52.31056 | 4.77322 | -2 ft | 8 kts | 208° |
| 2026-04-27 13:00 | 52.31011 | 4.77315 | -2 ft | 5 kts | 182° |
| 2026-04-27 13:00 | 52.30999 | 4.77314 | -2 ft | 0 kts | 182° |